createdAt,value
2022-08-25T00:01:20.349Z,91.70
2022-08-25T00:05:22.287Z,91.98
2022-08-25T00:09:27.430Z,91.97
2022-08-25T00:13:29.688Z,92.26
2022-08-25T00:17:31.359Z,92.37
2022-08-25T00:21:33.441Z,91.87
2022-08-25T00:25:35.153Z,91.92
2022-08-25T00:29:38.090Z,92.27
2022-08-25T00:33:39.971Z,92.01
2022-08-25T00:37:41.603Z,92.01
2022-08-25T00:41:43.814Z,92.08
2022-08-25T00:45:46.056Z,92.49
2022-08-25T00:49:56.380Z,92.28
2022-08-25T00:53:58.572Z,92.30
2022-08-25T00:58:07.612Z,92.26
2022-08-25T01:02:10.240Z,92.36
2022-08-25T01:06:15.773Z,92.22
2022-08-25T01:10:19.081Z,92.24
2022-08-25T01:14:23.185Z,92.55
2022-08-25T01:18:25.615Z,92.28
2022-08-25T01:22:27.206Z,92.13
2022-08-25T01:26:32.893Z,92.12
2022-08-25T01:30:35.087Z,92.11
2022-08-25T01:34:41.418Z,91.86
2022-08-25T01:38:43.054Z,91.92
2022-08-25T01:43:00.209Z,91.68
2022-08-25T01:47:03.448Z,91.73
2022-08-25T01:51:05.164Z,92.04
2022-08-25T01:55:07.275Z,92.18
2022-08-25T01:59:09.309Z,92.01
2022-08-25T02:03:18.591Z,91.73
2022-08-25T02:07:20.833Z,91.58
2022-08-25T02:11:24.113Z,91.29
2022-08-25T02:15:25.838Z,91.54
2022-08-25T02:19:27.497Z,91.03
2022-08-25T02:23:29.182Z,90.94
2022-08-25T02:27:30.897Z,90.63
2022-08-25T02:31:32.466Z,90.75
2022-08-25T02:35:34.546Z,90.39
2022-08-25T02:39:36.748Z,90.45
2022-08-25T02:43:39.677Z,90.46
2022-08-25T02:47:41.713Z,90.50
2022-08-25T02:51:43.326Z,90.26
2022-08-25T02:55:45.519Z,90.27
2022-08-25T02:59:48.454Z,89.98
2022-08-25T03:03:52.124Z,89.72
2022-08-25T03:08:02.856Z,89.10
2022-08-25T03:12:05.178Z,89.00
2022-08-25T03:16:10.936Z,88.78
2022-08-25T03:20:13.547Z,88.35
2022-08-25T03:24:15.204Z,87.96
2022-08-25T03:28:17.643Z,87.61
2022-08-25T03:32:19.219Z,87.69
2022-08-25T03:36:20.866Z,87.16
2022-08-25T03:40:23.346Z,87.11
2022-08-25T03:44:25.068Z,86.81
2022-08-25T03:48:26.658Z,86.18
2022-08-25T03:52:28.377Z,86.38
2022-08-25T03:56:30.808Z,86.31
2022-08-25T04:00:32.453Z,85.93
2022-08-25T04:04:35.159Z,85.90
2022-08-25T04:08:37.778Z,85.80
2022-08-25T04:12:39.810Z,85.76
2022-08-25T04:16:41.549Z,85.87
2022-08-25T04:20:46.772Z,85.92
2022-08-25T04:24:48.778Z,85.43
2022-08-25T04:28:50.971Z,85.46
2022-08-25T04:32:52.577Z,85.81
2022-08-25T04:36:54.447Z,85.85
2022-08-25T04:40:58.648Z,85.48
2022-08-25T04:45:01.859Z,85.74
2022-08-25T04:49:05.028Z,85.55
2022-08-25T04:53:06.833Z,85.10
2022-08-25T04:57:08.471Z,84.69
2022-08-25T05:01:15.535Z,84.33
2022-08-25T05:05:17.207Z,84.08
2022-08-25T05:09:19.915Z,83.46
2022-08-25T05:13:24.805Z,83.38
2022-08-25T05:17:27.965Z,82.86
2022-08-25T05:21:29.687Z,82.68
2022-08-25T05:25:32.767Z,82.15
2022-08-25T05:29:34.377Z,81.09
2022-08-25T05:33:37.198Z,80.92
2022-08-25T05:37:38.914Z,80.30
2022-08-25T05:41:40.853Z,79.61
2022-08-25T05:45:42.536Z,78.99
2022-08-25T05:49:44.146Z,78.58
2022-08-25T05:53:48.333Z,77.50
2022-08-25T05:57:50.133Z,77.02
2022-08-25T06:02:10.569Z,75.67
2022-08-25T06:06:12.257Z,75.36
2022-08-25T06:10:14.530Z,74.53
2022-08-25T06:14:16.655Z,73.97
2022-08-25T06:18:18.239Z,73.64
2022-08-25T06:22:19.873Z,73.23
2022-08-25T06:26:21.742Z,73.27
2022-08-25T06:30:28.979Z,72.50
2022-08-25T06:34:30.827Z,72.39
2022-08-25T06:38:32.526Z,71.39
2022-08-25T06:42:34.840Z,71.46
2022-08-25T06:46:37.289Z,71.12
2022-08-25T06:50:40.277Z,70.63
2022-08-25T06:54:42.146Z,69.82
2022-08-25T06:58:44.039Z,69.10
2022-08-25T07:02:45.662Z,68.39
2022-08-25T07:06:47.850Z,67.91
2022-08-25T07:10:49.517Z,67.07
2022-08-25T07:15:10.195Z,66.16
2022-08-25T07:19:14.763Z,65.98
2022-08-25T07:27:18.381Z,65.16
2022-08-25T07:31:20.095Z,64.44
2022-08-25T07:35:24.595Z,63.86
2022-08-25T07:39:29.134Z,63.71
2022-08-25T07:43:30.869Z,63.16
2022-08-25T07:47:33.179Z,62.71
2022-08-25T07:51:35.025Z,62.87
2022-08-25T07:55:36.816Z,62.50
2022-08-25T07:59:42.584Z,61.81
2022-08-25T08:03:50.568Z,61.66
2022-08-25T08:07:54.137Z,61.49
2022-08-25T08:11:55.706Z,61.06
2022-08-25T08:15:57.461Z,60.67
2022-08-25T08:19:59.543Z,60.05
2022-08-25T08:24:05.071Z,59.89
2022-08-25T08:28:12.641Z,59.42
2022-08-25T08:32:15.023Z,59.13
2022-08-25T08:36:18.537Z,59.03
2022-08-25T08:40:21.000Z,58.93
2022-08-25T08:44:46.292Z,57.78
2022-08-25T08:48:54.474Z,57.87
2022-08-25T08:53:35.042Z,57.24
2022-08-25T08:57:44.956Z,57.21
2022-08-25T09:01:59.424Z,57.10
2022-08-25T09:06:07.771Z,57.00
2022-08-25T09:10:10.864Z,56.76
2022-08-25T09:14:30.409Z,55.69
2022-08-25T09:19:00.114Z,55.63
2022-08-25T09:23:07.473Z,55.66
2022-08-25T09:27:20.194Z,55.36
2022-08-25T09:31:35.778Z,54.81
2022-08-25T09:35:40.710Z,54.38
2022-08-25T09:39:42.383Z,54.23
2022-08-25T09:43:53.991Z,53.39
2022-08-25T09:47:55.627Z,53.54
2022-08-25T09:52:36.327Z,52.39
2022-08-25T09:56:56.547Z,52.00
2022-08-25T10:01:03.876Z,52.11
2022-08-25T10:05:24.733Z,51.58
2022-08-25T10:09:40.784Z,51.26
2022-08-25T10:13:48.983Z,51.54
2022-08-25T10:17:54.737Z,51.38
2022-08-25T10:22:22.070Z,51.16
2022-08-25T10:26:36.895Z,51.13
2022-08-25T10:31:01.517Z,50.83
2022-08-25T10:35:13.200Z,50.99
2022-08-25T10:39:36.687Z,50.92
2022-08-25T10:44:33.730Z,51.06
2022-08-25T10:49:08.564Z,51.40
2022-08-25T10:53:29.101Z,50.62
2022-08-25T10:57:34.218Z,51.00
2022-08-25T11:01:55.904Z,50.41
2022-08-25T11:06:12.422Z,50.33
2022-08-25T11:10:20.080Z,49.93
2022-08-25T11:14:25.130Z,48.90
2022-08-25T11:18:31.822Z,48.65
2022-08-25T11:22:40.705Z,48.06
2022-08-25T11:26:48.550Z,46.99
2022-08-25T11:30:57.439Z,46.62
2022-08-25T11:35:02.276Z,45.88
2022-08-25T11:39:11.466Z,45.47
2022-08-25T11:43:35.637Z,44.84
2022-08-25T11:47:58.902Z,44.41
2022-08-25T11:52:03.029Z,44.33
2022-08-25T11:56:33.188Z,43.33
2022-08-25T12:00:43.347Z,43.73
2022-08-25T12:04:45.756Z,43.48
2022-08-25T12:09:12.715Z,42.44
2022-08-25T12:13:40.974Z,42.52
2022-08-25T12:17:42.589Z,42.71
2022-08-25T12:21:44.274Z,42.22
2022-08-25T12:25:53.418Z,42.24
2022-08-25T12:30:05.603Z,41.13
2022-08-25T12:34:40.744Z,40.44
2022-08-25T12:38:52.117Z,39.96
2022-08-25T12:43:04.427Z,38.93
2022-08-25T12:47:32.407Z,39.21
2022-08-25T12:51:34.015Z,39.23
2022-08-25T12:55:39.732Z,39.34
2022-08-25T12:59:48.728Z,39.11
2022-08-25T13:04:11.677Z,38.85
2022-08-25T13:08:46.941Z,38.75
2022-08-25T13:13:07.192Z,38.29
2022-08-25T13:17:09.986Z,39.08
2022-08-25T13:21:24.701Z,40.48
2022-08-25T13:25:32.703Z,41.51
2022-08-25T13:29:48.764Z,41.45
2022-08-25T13:33:59.721Z,41.45
2022-08-25T13:38:19.433Z,43.19
2022-08-25T13:42:23.940Z,43.44
2022-08-25T13:46:31.697Z,43.09
2022-08-25T13:50:37.354Z,43.10
2022-08-25T13:54:41.947Z,43.09
2022-08-25T13:58:46.715Z,43.04
2022-08-25T14:02:52.170Z,43.00
2022-08-25T14:07:21.222Z,43.70
2022-08-25T14:11:41.041Z,44.37
2022-08-25T14:15:45.906Z,44.65
2022-08-25T14:19:47.727Z,45.14
2022-08-25T14:23:49.513Z,44.95
2022-08-25T14:28:16.180Z,44.08
2022-08-25T14:32:17.894Z,44.12
2022-08-25T14:36:20.906Z,44.36
2022-08-25T14:40:22.844Z,44.58
2022-08-25T14:44:24.555Z,44.44
2022-08-25T14:48:52.126Z,43.91
2022-08-25T14:52:53.773Z,43.99
2022-08-25T14:57:00.032Z,43.50
2022-08-25T15:01:06.055Z,43.08
2022-08-25T15:05:12.492Z,43.53
2022-08-25T15:09:18.117Z,45.36
2022-08-25T15:13:21.489Z,46.44
2022-08-25T15:17:23.438Z,48.24
2022-08-25T15:21:25.090Z,49.45
2022-08-25T15:25:27.026Z,51.13
2022-08-25T15:29:30.532Z,53.44
2022-08-25T15:33:32.126Z,55.55
2022-08-25T15:37:35.672Z,57.10
2022-08-25T15:41:37.866Z,58.79
2022-08-25T15:45:40.102Z,60.10
2022-08-25T15:49:43.097Z,61.56
2022-08-25T15:53:45.946Z,62.59
2022-08-25T15:57:47.921Z,63.99
2022-08-25T16:01:53.580Z,65.66
2022-08-25T16:05:55.633Z,66.16
2022-08-25T16:09:58.320Z,67.44
2022-08-25T16:14:00.076Z,68.48
2022-08-25T16:18:04.792Z,69.24
2022-08-25T16:22:08.943Z,69.50
2022-08-25T16:26:13.055Z,70.26
2022-08-25T16:30:17.506Z,70.88
2022-08-25T16:34:19.470Z,71.71
2022-08-25T16:38:21.051Z,72.29
2022-08-25T16:42:22.655Z,72.19
2022-08-25T16:46:24.300Z,72.57
2022-08-25T16:50:26.053Z,73.06
2022-08-25T16:54:48.410Z,73.29
2022-08-25T16:58:53.989Z,73.91
2022-08-25T17:02:59.489Z,74.29
2022-08-25T17:07:01.959Z,74.57
2022-08-25T17:11:10.974Z,75.16
2022-08-25T17:15:12.569Z,75.78
2022-08-25T17:19:16.078Z,76.38
2022-08-25T17:23:18.206Z,76.35
2022-08-25T17:27:23.440Z,76.87
2022-08-25T17:31:25.586Z,77.31
2022-08-25T17:35:27.437Z,77.31
2022-08-25T17:39:29.122Z,77.61
2022-08-25T17:43:31.318Z,77.69
2022-08-25T17:47:33.080Z,78.12
2022-08-25T17:51:35.249Z,78.91
2022-08-25T17:55:38.895Z,79.27
2022-08-25T17:59:44.197Z,79.58
2022-08-25T18:03:46.616Z,79.92
2022-08-25T18:07:48.230Z,80.51
2022-08-25T18:11:52.516Z,80.69
2022-08-25T18:15:54.130Z,81.69
2022-08-25T18:19:55.770Z,81.68
2022-08-25T18:23:57.499Z,82.13
2022-08-25T18:27:59.138Z,82.26
2022-08-25T18:32:00.881Z,82.21
2022-08-25T18:36:02.721Z,82.44
2022-08-25T18:40:23.812Z,82.86
2022-08-25T18:44:25.567Z,82.88
2022-08-25T18:48:27.631Z,83.37
2022-08-25T18:52:29.234Z,83.65
2022-08-25T18:56:31.075Z,84.21
2022-08-25T19:00:33.819Z,84.77
2022-08-25T19:04:35.503Z,84.87
2022-08-25T19:08:39.494Z,85.68
2022-08-25T19:12:43.594Z,85.53
2022-08-25T19:16:45.783Z,85.52
2022-08-25T19:20:47.545Z,85.81
2022-08-25T19:24:49.720Z,86.07
2022-08-25T19:28:52.709Z,86.71
2022-08-25T19:32:55.416Z,86.88
2022-08-25T19:37:02.140Z,86.91
2022-08-25T19:41:09.042Z,87.21
2022-08-25T19:45:16.050Z,87.11
2022-08-25T19:49:27.670Z,87.83
2022-08-25T19:53:34.529Z,87.56
2022-08-25T19:57:42.991Z,87.44
2022-08-25T20:01:47.292Z,87.52
2022-08-25T20:05:51.160Z,87.52
2022-08-25T20:09:54.058Z,87.86
2022-08-25T20:13:59.307Z,87.53
2022-08-25T20:18:03.656Z,87.57
2022-08-25T20:22:06.465Z,87.78
2022-08-25T20:26:12.818Z,87.79
2022-08-25T20:30:28.980Z,87.21
2022-08-25T20:34:30.826Z,87.30
2022-08-25T20:38:34.276Z,87.41
2022-08-25T20:42:35.994Z,86.97
2022-08-25T20:46:39.300Z,87.05
2022-08-25T20:50:40.995Z,86.94
2022-08-25T20:54:49.321Z,87.31
2022-08-25T20:58:52.067Z,86.97
2022-08-25T21:02:54.133Z,87.24
2022-08-25T21:06:57.098Z,87.28
2022-08-25T21:10:58.829Z,87.59
2022-08-25T21:15:00.512Z,86.92
2022-08-25T21:19:02.478Z,87.28
2022-08-25T21:23:04.168Z,87.21
2022-08-25T21:27:08.255Z,87.15
2022-08-25T21:31:11.177Z,86.63
2022-08-25T21:35:13.225Z,86.84
2022-08-25T21:39:15.056Z,87.32
2022-08-25T21:43:18.631Z,86.94
2022-08-25T21:47:21.607Z,87.48
2022-08-25T21:51:30.980Z,87.38
2022-08-25T21:55:38.065Z,87.51
2022-08-25T21:59:43.772Z,87.25
2022-08-25T22:03:47.101Z,87.20
2022-08-25T22:07:49.032Z,87.62
2022-08-25T22:11:50.908Z,87.15
2022-08-25T22:15:52.949Z,87.09
2022-08-25T22:19:55.739Z,87.50
2022-08-25T22:23:57.562Z,87.83
2022-08-25T22:27:59.138Z,87.13
2022-08-25T22:32:02.420Z,87.14
2022-08-25T22:36:13.642Z,87.24
2022-08-25T22:40:15.482Z,87.16
2022-08-25T22:44:19.019Z,87.61
2022-08-25T22:48:20.780Z,87.33
2022-08-25T22:52:22.843Z,87.72
2022-08-25T22:56:37.364Z,87.44
2022-08-25T23:00:40.145Z,87.56
2022-08-25T23:04:43.537Z,87.59
2022-08-25T23:08:45.343Z,87.59
2022-08-25T23:12:46.939Z,87.17
2022-08-25T23:16:50.116Z,87.45
2022-08-25T23:21:10.571Z,87.24
2022-08-25T23:25:12.225Z,87.32
2022-08-25T23:29:17.910Z,86.78
2022-08-25T23:33:21.484Z,86.83
2022-08-25T23:37:23.149Z,86.84
2022-08-25T23:41:25.911Z,86.56
2022-08-25T23:45:28.342Z,86.53
2022-08-25T23:49:32.642Z,86.83
2022-08-25T23:53:35.638Z,86.89
2022-08-25T23:57:37.232Z,86.83
